createdAt,value
2022-12-19T00:02:05.182Z,102313.50
2022-12-19T00:04:35.839Z,102303.53
2022-12-19T00:07:05.027Z,102292.94
2022-12-19T00:09:34.760Z,102287.31
2022-12-19T00:12:06.163Z,102291.34
2022-12-19T00:14:38.785Z,102280.19
2022-12-19T00:17:08.497Z,102276.50
2022-12-19T00:19:36.928Z,102282.91
2022-12-19T00:22:11.040Z,102283.41
2022-12-19T00:24:41.363Z,102289.47
2022-12-19T00:27:11.182Z,102288.47
2022-12-19T00:29:40.911Z,102271.53
2022-12-19T00:32:09.314Z,102272.88
2022-12-19T00:34:40.706Z,102271.72
2022-12-19T00:37:09.135Z,102275.44
2022-12-19T00:39:37.543Z,102271.34
2022-12-19T00:42:07.121Z,102271.00
2022-12-19T00:44:34.472Z,102269.31
2022-12-19T00:47:02.748Z,102275.94
2022-12-19T00:49:31.188Z,102254.84
2022-12-19T00:52:00.095Z,102246.34
2022-12-19T00:54:28.454Z,102241.63
2022-12-19T00:56:56.414Z,102241.44
2022-12-19T00:59:26.816Z,102239.06
2022-12-19T01:01:57.735Z,102239.41
2022-12-19T01:04:29.174Z,102233.13
2022-12-19T01:07:02.706Z,102227.31
2022-12-19T01:09:36.205Z,102227.31
2022-12-19T01:12:26.183Z,102234.31
2022-12-19T01:15:03.881Z,102223.69
2022-12-19T01:17:42.335Z,102212.09
2022-12-19T01:20:29.658Z,102208.09
2022-12-19T01:23:00.694Z,102204.31
2022-12-19T01:25:30.869Z,102204.22
2022-12-19T01:28:00.678Z,102198.91
2022-12-19T01:30:30.900Z,102191.22
2022-12-19T01:33:02.093Z,102185.94
2022-12-19T01:35:31.949Z,102186.81
2022-12-19T01:38:07.725Z,102155.38
2022-12-19T01:40:38.798Z,102146.69
2022-12-19T01:43:15.184Z,102137.03
2022-12-19T01:45:51.514Z,102138.91
2022-12-19T01:48:44.771Z,102145.47
2022-12-19T01:51:23.180Z,102141.41
2022-12-19T01:54:04.560Z,102140.88
2022-12-19T01:56:44.961Z,102132.72
2022-12-19T01:59:54.298Z,102131.19
2022-12-19T02:02:37.280Z,102112.97
2022-12-19T02:05:08.361Z,102105.19
2022-12-19T02:07:42.171Z,102097.28
2022-12-19T02:10:12.600Z,102102.34
2022-12-19T02:12:46.252Z,102099.47
2022-12-19T02:15:18.000Z,102104.22
2022-12-19T02:18:40.846Z,102113.03
2022-12-19T02:21:35.278Z,102103.53
2022-12-19T02:25:00.073Z,102093.59
2022-12-19T02:28:03.340Z,102097.72
2022-12-19T02:31:19.645Z,102102.31
2022-12-19T02:34:21.828Z,102093.78
2022-12-19T02:37:17.796Z,102099.34
2022-12-19T02:40:19.509Z,102089.03
2022-12-19T02:43:00.234Z,102086.75
2022-12-19T02:45:39.975Z,102080.50
2022-12-19T02:48:13.065Z,102083.81
2022-12-19T02:50:50.237Z,102093.66
2022-12-19T02:53:22.449Z,102082.22
2022-12-19T02:57:01.767Z,102083.31
2022-12-19T02:59:56.110Z,102090.34
2022-12-19T03:03:00.758Z,102076.47
2022-12-19T03:05:46.604Z,102082.00
2022-12-19T03:08:41.654Z,102076.06
2022-12-19T03:11:15.645Z,102068.16
2022-12-19T03:14:02.261Z,102073.16
2022-12-19T03:16:38.200Z,102074.38
2022-12-19T03:19:14.311Z,102059.66
2022-12-19T03:21:49.410Z,102066.00
2022-12-19T03:24:20.379Z,102077.31
2022-12-19T03:27:29.217Z,102071.41
2022-12-19T03:30:13.470Z,102072.34
2022-12-19T03:32:49.406Z,102058.72
2022-12-19T03:35:30.734Z,102063.41
2022-12-19T03:38:06.098Z,102053.81
2022-12-19T03:40:40.065Z,102050.16
2022-12-19T03:43:16.951Z,102050.91
2022-12-19T03:46:04.493Z,102053.44
2022-12-19T03:48:46.101Z,102058.50
2022-12-19T03:51:56.366Z,102054.59
2022-12-19T03:54:50.408Z,102060.09
2022-12-19T03:57:41.394Z,102058.69
2022-12-19T04:00:19.105Z,102050.31
2022-12-19T04:02:55.235Z,102054.41
2022-12-19T04:05:29.213Z,102052.53
2022-12-19T04:08:08.278Z,102058.03
2022-12-19T04:11:20.778Z,102045.81
2022-12-19T04:14:06.303Z,102046.84
2022-12-19T04:17:10.790Z,102037.88
2022-12-19T04:19:49.228Z,102029.41
2022-12-19T04:22:40.500Z,102036.78
2022-12-19T04:25:29.895Z,102034.72
2022-12-19T04:28:32.737Z,102033.63
2022-12-19T04:31:06.614Z,102047.41
2022-12-19T04:33:36.868Z,102052.47
2022-12-19T04:36:08.053Z,102059.84
2022-12-19T04:38:38.850Z,102057.47
2022-12-19T04:41:09.255Z,102054.88
2022-12-19T04:43:39.467Z,102051.59
2022-12-19T04:46:09.537Z,102038.28
2022-12-19T04:48:38.180Z,102034.34
2022-12-19T04:51:07.084Z,102028.84
2022-12-19T04:53:35.659Z,102039.72
2022-12-19T04:56:07.269Z,102030.50
2022-12-19T04:58:35.149Z,102025.97
2022-12-19T05:01:09.675Z,102015.22
2022-12-19T05:03:40.935Z,102012.25
2022-12-19T05:06:14.904Z,102006.75
2022-12-19T05:08:46.397Z,102009.53
2022-12-19T05:11:19.977Z,102022.66
2022-12-19T05:13:50.291Z,102018.22
2022-12-19T05:16:19.458Z,102028.94
2022-12-19T05:18:47.514Z,102015.59
2022-12-19T05:21:15.788Z,102004.50
2022-12-19T05:23:44.175Z,102008.78
2022-12-19T05:26:13.540Z,102015.00
2022-12-19T05:28:41.240Z,102015.91
2022-12-19T05:31:17.827Z,102017.38
2022-12-19T05:33:49.645Z,102009.31
2022-12-19T05:36:20.276Z,102008.41
2022-12-19T05:38:50.410Z,102000.19
2022-12-19T05:41:22.824Z,102014.81
2022-12-19T05:43:56.402Z,101998.75
2022-12-19T05:46:27.409Z,101999.28
2022-12-19T05:48:57.672Z,102000.44
2022-12-19T05:51:28.262Z,101992.06
2022-12-19T05:54:01.358Z,101988.34
2022-12-19T05:56:31.599Z,101980.13
2022-12-19T05:59:01.613Z,101968.59
2022-12-19T06:01:32.515Z,101967.81
2022-12-19T06:04:02.659Z,101969.34
2022-12-19T06:06:32.679Z,101970.47
2022-12-19T06:09:02.868Z,101972.91
2022-12-19T06:11:32.986Z,101966.00
2022-12-19T06:14:03.483Z,101964.63
2022-12-19T06:16:33.585Z,101962.47
2022-12-19T06:19:03.933Z,101953.63
2022-12-19T06:21:34.217Z,101945.44
2022-12-19T06:24:04.883Z,101936.22
2022-12-19T06:26:34.864Z,101947.13
2022-12-19T06:29:04.957Z,101938.56
2022-12-19T06:31:35.066Z,101936.72
2022-12-19T06:34:05.495Z,101931.38
2022-12-19T06:36:35.757Z,101932.00
2022-12-19T06:39:05.940Z,101922.78
2022-12-19T06:41:54.919Z,101921.16
2022-12-19T06:44:25.034Z,101929.44
2022-12-19T06:46:55.190Z,101934.63
2022-12-19T06:49:25.370Z,101937.06
2022-12-19T06:51:55.393Z,101919.28
2022-12-19T06:54:25.424Z,101928.38
2022-12-19T06:56:55.472Z,101925.44
2022-12-19T06:59:25.478Z,101932.56
2022-12-19T07:02:04.669Z,101931.88
2022-12-19T07:05:00.961Z,101936.78
2022-12-19T07:07:31.340Z,101934.94
2022-12-19T07:10:01.525Z,101946.84
2022-12-19T07:12:31.959Z,101947.53
2022-12-19T07:14:59.984Z,101949.63
2022-12-19T07:17:30.490Z,101940.81
2022-12-19T07:20:00.190Z,101934.66
2022-12-19T07:22:36.413Z,101947.94
2022-12-19T07:25:06.720Z,101941.31
2022-12-19T07:27:37.291Z,101939.88
2022-12-19T07:30:08.129Z,101935.16
2022-12-19T07:32:39.562Z,101941.78
2022-12-19T07:35:10.199Z,101934.38
2022-12-19T07:37:40.421Z,101928.97
2022-12-19T07:40:11.602Z,101935.06
2022-12-19T07:42:41.707Z,101931.59
2022-12-19T07:45:12.705Z,101941.69
2022-12-19T07:47:42.760Z,101941.91
2022-12-19T07:50:13.517Z,101944.19
2022-12-19T07:52:43.590Z,101935.34
2022-12-19T07:55:14.114Z,101934.59
2022-12-19T07:57:44.345Z,101911.38
2022-12-19T08:00:15.036Z,101917.91
2022-12-19T08:02:46.804Z,101927.94
2022-12-19T08:05:17.440Z,101925.03
2022-12-19T08:07:47.473Z,101920.59
2022-12-19T08:10:17.863Z,101920.47
2022-12-19T08:12:48.007Z,101921.34
2022-12-19T08:15:18.753Z,101918.25
2022-12-19T08:17:48.835Z,101918.03
2022-12-19T08:20:19.463Z,101911.34
2022-12-19T08:22:49.503Z,101906.16
2022-12-19T08:25:19.571Z,101910.34
2022-12-19T08:27:49.601Z,101896.53
2022-12-19T08:30:19.629Z,101891.75
2022-12-19T08:32:48.125Z,101897.59
2022-12-19T08:35:17.764Z,101896.13
2022-12-19T08:37:44.904Z,101895.28
2022-12-19T08:40:14.817Z,101901.56
2022-12-19T08:42:44.879Z,101898.84
2022-12-19T08:45:15.132Z,101891.97
2022-12-19T08:47:45.905Z,101881.69
2022-12-19T08:50:15.449Z,101883.19
2022-12-19T08:52:45.757Z,101885.47
2022-12-19T08:55:15.875Z,101873.75
2022-12-19T08:57:45.903Z,101867.50
2022-12-19T09:00:17.206Z,101859.97
2022-12-19T09:02:46.531Z,101867.47
2022-12-19T09:06:02.453Z,101859.25
2022-12-19T09:08:07.473Z,101849.25
2022-12-19T09:10:38.922Z,101842.94
2022-12-19T09:13:08.918Z,101836.66
2022-12-19T09:15:39.276Z,101828.44
2022-12-19T09:18:10.442Z,101831.41
2022-12-19T09:20:38.927Z,101823.63
2022-12-19T09:23:07.377Z,101813.56
2022-12-19T09:25:35.841Z,101819.78
2022-12-19T09:31:10.831Z,101817.28
2022-12-19T09:33:43.678Z,101809.19
2022-12-19T09:36:25.007Z,101811.91
2022-12-19T09:38:58.754Z,101806.44
2022-12-19T09:42:23.222Z,101797.91
2022-12-19T09:45:49.861Z,101786.84
2022-12-19T09:48:23.967Z,101786.34
2022-12-19T09:51:34.522Z,101780.09
2022-12-19T09:54:33.570Z,101777.78
2022-12-19T09:57:19.169Z,101786.78
2022-12-19T10:00:06.154Z,101786.69
2022-12-19T10:02:56.159Z,101765.63
2022-12-19T10:07:11.330Z,101755.63
2022-12-19T10:10:03.987Z,101749.97
2022-12-19T10:12:51.772Z,101745.34
2022-12-19T10:16:04.925Z,101751.31
2022-12-19T10:18:56.786Z,101741.63
2022-12-19T10:22:16.333Z,101740.38
2022-12-19T10:25:20.413Z,101735.28
2022-12-19T10:28:05.274Z,101740.66
2022-12-19T10:31:01.475Z,101732.13
2022-12-19T10:33:50.135Z,101721.97
2022-12-19T10:36:36.233Z,101721.06
2022-12-19T10:39:46.149Z,101721.28
2022-12-19T10:42:51.209Z,101716.19
2022-12-19T10:45:33.192Z,101707.19
2022-12-19T10:48:12.060Z,101699.31
2022-12-19T10:50:42.148Z,101700.44
2022-12-19T10:53:15.034Z,101697.72
2022-12-19T10:55:52.055Z,101687.91
2022-12-19T10:58:36.727Z,101687.44
2022-12-19T11:01:17.529Z,101673.97
2022-12-19T11:04:15.488Z,101668.78
2022-12-19T11:06:52.945Z,101670.47
2022-12-19T11:09:41.017Z,101664.13
2022-12-19T11:17:51.320Z,101654.69
2022-12-19T11:18:56.686Z,101655.50
2022-12-19T11:28:10.100Z,101647.81
2022-12-19T11:29:36.497Z,101633.41
2022-12-19T11:29:43.196Z,101631.91
2022-12-19T11:30:06.588Z,101623.78
2022-12-19T11:33:33.560Z,101616.91
2022-12-19T11:36:06.662Z,101623.13
2022-12-19T11:38:54.228Z,101623.94
2022-12-19T11:41:43.752Z,101615.75
2022-12-19T11:44:44.399Z,101609.31
2022-12-19T11:47:48.408Z,101604.94
2022-12-19T11:50:32.222Z,101593.16
2022-12-19T11:53:23.412Z,101591.13
2022-12-19T11:56:17.342Z,101592.09
2022-12-19T11:58:59.066Z,101584.63
2022-12-19T12:01:46.221Z,101580.38
2022-12-19T12:05:37.878Z,101574.31
2022-12-19T12:10:38.491Z,101583.44
2022-12-19T12:16:36.197Z,101574.00
2022-12-19T12:25:07.026Z,101577.13
2022-12-19T12:30:46.279Z,101563.13
2022-12-19T12:31:21.097Z,101572.66
2022-12-19T12:31:44.725Z,101561.59
2022-12-19T12:31:51.535Z,101558.59
2022-12-19T12:35:54.535Z,101561.59
2022-12-19T12:39:40.304Z,101559.47
2022-12-19T12:43:14.170Z,101558.50
2022-12-19T12:45:45.748Z,101556.03
2022-12-19T12:48:40.401Z,101547.47
2022-12-19T12:51:12.736Z,101549.25
2022-12-19T12:53:49.370Z,101542.84
2022-12-19T12:56:21.144Z,101546.88
2022-12-19T12:58:52.706Z,101542.84
2022-12-19T13:01:39.408Z,101547.34
2022-12-19T13:04:12.459Z,101536.69
2022-12-19T13:07:42.076Z,101525.97
2022-12-19T13:10:30.894Z,101527.66
2022-12-19T13:13:14.098Z,101534.31
2022-12-19T13:15:46.663Z,101531.44
2022-12-19T13:18:39.909Z,101530.28
2022-12-19T13:21:10.255Z,101528.47
2022-12-19T13:23:46.868Z,101522.31
2022-12-19T13:26:49.601Z,101515.16
2022-12-19T13:29:32.666Z,101509.13
2022-12-19T13:32:16.534Z,101502.38
2022-12-19T13:35:44.201Z,101499.72
2022-12-19T13:39:54.778Z,101506.59
2022-12-19T13:41:25.419Z,101497.69
2022-12-19T13:44:00.117Z,101498.09
2022-12-19T13:46:46.111Z,101496.63
2022-12-19T13:49:34.574Z,101496.91
2022-12-19T13:52:07.120Z,101500.34
2022-12-19T13:54:55.777Z,101499.97
2022-12-19T13:57:31.489Z,101499.88
2022-12-19T14:00:16.477Z,101492.50
2022-12-19T14:03:00.536Z,101491.06
2022-12-19T14:06:16.421Z,101491.06
2022-12-19T14:08:30.725Z,101483.09
2022-12-19T14:11:37.202Z,101484.25
2022-12-19T14:14:25.506Z,101484.97
2022-12-19T14:17:21.807Z,101473.00
2022-12-19T14:19:53.528Z,101473.91
2022-12-19T14:22:43.561Z,101470.84
2022-12-19T14:28:18.191Z,101476.56
2022-12-19T14:28:29.251Z,101482.84
2022-12-19T14:31:11.492Z,101483.66
2022-12-19T14:34:11.650Z,101479.41
2022-12-19T14:36:55.843Z,101472.72
2022-12-19T14:39:35.499Z,101476.56
2022-12-19T14:43:55.555Z,101469.03
2022-12-19T14:52:34.174Z,101473.25
2022-12-19T14:54:05.640Z,101468.16
2022-12-19T14:54:28.660Z,101474.19
2022-12-19T14:58:50.927Z,101465.41
2022-12-19T15:01:07.802Z,101470.94
2022-12-19T15:04:52.257Z,101467.72
2022-12-19T15:07:08.952Z,101453.75
2022-12-19T15:11:08.036Z,101458.34
2022-12-19T15:14:48.943Z,101449.25
2022-12-19T15:16:31.120Z,101455.16
2022-12-19T15:19:02.889Z,101453.78
2022-12-19T15:21:32.130Z,101448.72
2022-12-19T15:23:59.537Z,101453.19
2022-12-19T15:26:34.250Z,101453.31
2022-12-19T15:29:14.077Z,101454.41
2022-12-19T15:31:48.256Z,101456.94
2022-12-19T15:34:37.248Z,101447.25
2022-12-19T15:37:17.248Z,101453.78
2022-12-19T15:39:46.961Z,101453.13
2022-12-19T15:42:27.279Z,101446.31
2022-12-19T15:44:59.907Z,101444.31
2022-12-19T15:47:36.557Z,101446.38
2022-12-19T15:50:21.624Z,101444.06
2022-12-19T15:52:57.820Z,101449.22
2022-12-19T15:55:31.417Z,101438.34
2022-12-19T15:58:06.923Z,101438.84
2022-12-19T16:00:37.484Z,101435.09
2022-12-19T16:03:23.399Z,101428.75
2022-12-19T16:05:56.543Z,101426.22
2022-12-19T16:08:28.256Z,101426.81
2022-12-19T16:11:01.711Z,101421.88
2022-12-19T16:13:35.584Z,101429.72
2022-12-19T16:16:13.040Z,101423.09
2022-12-19T16:18:45.797Z,101426.66
2022-12-19T16:21:27.520Z,101423.75
2022-12-19T16:24:11.442Z,101425.59
2022-12-19T16:26:41.631Z,101426.59
2022-12-19T16:29:28.043Z,101420.94
2022-12-19T16:31:58.301Z,101422.34
2022-12-19T16:34:29.395Z,101423.53
2022-12-19T16:36:59.457Z,101422.88
2022-12-19T16:39:29.487Z,101407.59
2022-12-19T16:41:59.896Z,101415.06
2022-12-19T16:44:35.937Z,101403.78
2022-12-19T16:47:17.663Z,101407.75
2022-12-19T16:49:47.790Z,101408.84
2022-12-19T16:52:17.592Z,101415.81
2022-12-19T16:54:47.541Z,101407.09
2022-12-19T16:57:22.581Z,101409.00
2022-12-19T16:59:52.656Z,101411.03
2022-12-19T17:02:49.377Z,101426.41
2022-12-19T17:05:29.432Z,101410.63
2022-12-19T17:08:00.317Z,101406.84
2022-12-19T17:10:33.765Z,101405.25
2022-12-19T17:13:04.406Z,101407.09
2022-12-19T17:15:38.944Z,101405.66
2022-12-19T17:18:27.182Z,101405.72
2022-12-19T17:20:55.191Z,101397.25
2022-12-19T17:23:29.098Z,101403.38
2022-12-19T17:26:00.353Z,101403.00
2022-12-19T17:28:29.948Z,101406.53
2022-12-19T17:31:12.352Z,101397.91
2022-12-19T17:33:42.632Z,101397.50
2022-12-19T17:36:19.890Z,101392.03
2022-12-19T17:38:54.649Z,101401.50
2022-12-19T17:41:25.656Z,101389.38
2022-12-19T17:43:55.818Z,101394.25
2022-12-19T17:46:26.241Z,101391.66
2022-12-19T17:48:54.426Z,101385.31
2022-12-19T17:51:24.659Z,101395.31
2022-12-19T17:53:54.054Z,101387.22
2022-12-19T17:56:23.815Z,101382.63
2022-12-19T17:58:55.778Z,101386.22
2022-12-19T18:01:25.188Z,101381.25
2022-12-19T18:03:56.373Z,101391.81
2022-12-19T18:06:25.618Z,101395.06
2022-12-19T18:08:55.727Z,101398.22
2022-12-19T18:11:26.547Z,101390.66
2022-12-19T18:13:56.493Z,101397.16
2022-12-19T18:16:30.996Z,101396.03
2022-12-19T18:19:00.900Z,101397.63
2022-12-19T18:21:28.054Z,101392.75
2022-12-19T18:23:58.214Z,101390.59
2022-12-19T18:26:28.202Z,101389.00
2022-12-19T18:28:58.017Z,101394.25
2022-12-19T18:31:28.168Z,101387.53
2022-12-19T18:34:07.146Z,101389.13
2022-12-19T18:36:42.934Z,101384.41
2022-12-19T18:39:24.112Z,101381.16
2022-12-19T18:41:54.226Z,101385.47
2022-12-19T18:44:24.423Z,101391.44
2022-12-19T18:46:54.612Z,101377.31
2022-12-19T18:49:24.511Z,101378.38
2022-12-19T18:51:54.223Z,101387.63
2022-12-19T18:54:24.146Z,101381.41
2022-12-19T18:56:53.959Z,101376.19
2022-12-19T18:59:23.701Z,101378.50
2022-12-19T19:01:53.038Z,101372.19
2022-12-19T19:04:22.210Z,101373.84
2022-12-19T19:06:53.637Z,101374.66
2022-12-19T19:09:23.045Z,101372.50
2022-12-19T19:11:53.852Z,101362.47
2022-12-19T19:14:23.993Z,101356.03
2022-12-19T19:16:54.061Z,101346.97
2022-12-19T19:19:24.449Z,101354.53
2022-12-19T19:21:54.592Z,101354.00
2022-12-19T19:24:24.784Z,101350.00
2022-12-19T19:26:54.563Z,101348.41
2022-12-19T19:29:24.351Z,101344.72
2022-12-19T19:31:54.318Z,101334.84
2022-12-19T19:34:35.345Z,101336.25
2022-12-19T19:37:13.864Z,101339.75
2022-12-19T19:39:41.987Z,101335.22
2022-12-19T19:42:14.699Z,101334.75
2022-12-19T19:44:42.520Z,101342.91
2022-12-19T19:47:14.142Z,101342.25
2022-12-19T19:49:44.010Z,101347.94
2022-12-19T19:52:13.728Z,101342.78
2022-12-19T19:54:43.460Z,101338.00
2022-12-19T19:57:13.576Z,101345.81
2022-12-19T19:59:43.200Z,101348.34
2022-12-19T20:02:13.263Z,101343.06
2022-12-19T20:04:46.995Z,101338.75
2022-12-19T20:07:17.415Z,101338.22
2022-12-19T20:09:47.475Z,101340.94
2022-12-19T20:12:17.412Z,101341.72
2022-12-19T20:14:48.070Z,101339.22
2022-12-19T20:17:18.221Z,101334.06
2022-12-19T20:19:47.663Z,101338.53
2022-12-19T20:22:17.941Z,101335.06
2022-12-19T20:24:47.940Z,101330.22
2022-12-19T20:27:17.652Z,101328.50
2022-12-19T20:29:47.323Z,101322.34
2022-12-19T20:32:17.092Z,101320.13
2022-12-19T20:34:46.894Z,101331.34
2022-12-19T20:37:16.627Z,101312.56
2022-12-19T20:39:46.450Z,101312.63
2022-12-19T20:42:16.246Z,101313.28
2022-12-19T20:44:46.015Z,101315.03
2022-12-19T20:47:15.863Z,101317.59
2022-12-19T20:49:45.614Z,101317.19
2022-12-19T20:52:15.707Z,101319.56
2022-12-19T20:54:45.763Z,101322.19
2022-12-19T20:57:15.419Z,101324.66
2022-12-19T20:59:45.538Z,101330.78
2022-12-19T21:02:15.228Z,101311.34
2022-12-19T21:04:45.186Z,101307.97
2022-12-19T21:07:15.029Z,101322.69
2022-12-19T21:09:45.280Z,101329.00
2022-12-19T21:12:16.088Z,101322.44
2022-12-19T21:14:45.849Z,101323.09
2022-12-19T21:17:15.791Z,101319.97
2022-12-19T21:19:45.947Z,101327.84
2022-12-19T21:22:16.166Z,101327.34
2022-12-19T21:24:46.074Z,101322.63
2022-12-19T21:27:16.075Z,101320.13
2022-12-19T21:29:45.939Z,101325.69
2022-12-19T21:32:18.983Z,101330.00
2022-12-19T21:34:49.382Z,101320.97
2022-12-19T21:37:19.305Z,101314.00
2022-12-19T21:39:49.446Z,101323.28
2022-12-19T21:42:19.820Z,101319.44
2022-12-19T21:44:49.422Z,101314.06
2022-12-19T21:47:19.125Z,101312.19
2022-12-19T21:49:47.588Z,101312.81
2022-12-19T21:52:16.054Z,101314.22
2022-12-19T21:54:44.495Z,101319.25
2022-12-19T21:57:12.867Z,101311.22
2022-12-19T21:59:41.375Z,101335.00
2022-12-19T22:02:11.326Z,101341.22
2022-12-19T22:04:41.377Z,101337.25
2022-12-19T22:07:09.546Z,101330.91
2022-12-19T22:09:38.026Z,101324.09
2022-12-19T22:12:11.525Z,101314.53
2022-12-19T22:14:39.962Z,101317.31
2022-12-19T22:17:09.899Z,101313.38
2022-12-19T22:19:38.449Z,101312.63
2022-12-19T22:22:07.246Z,101317.66
2022-12-19T22:24:35.226Z,101318.72
2022-12-19T22:27:03.465Z,101326.84
2022-12-19T22:29:36.485Z,101309.69
2022-12-19T22:32:06.748Z,101315.56
2022-12-19T22:34:36.696Z,101312.38
2022-12-19T22:37:06.406Z,101310.75
2022-12-19T22:39:36.271Z,101315.97
2022-12-19T22:42:07.289Z,101320.50
2022-12-19T22:44:37.554Z,101315.00
2022-12-19T22:47:07.331Z,101318.00
2022-12-19T22:49:37.347Z,101303.75
2022-12-19T22:52:07.085Z,101298.25
2022-12-19T22:54:36.923Z,101291.47
2022-12-19T22:57:06.852Z,101287.41
2022-12-19T22:59:36.610Z,101287.78
2022-12-19T23:02:06.533Z,101277.59
2022-12-19T23:04:36.394Z,101267.28
2022-12-19T23:07:04.781Z,101271.06
2022-12-19T23:09:33.120Z,101289.84
2022-12-19T23:12:01.651Z,101285.75
2022-12-19T23:14:30.092Z,101279.13
2022-12-19T23:16:58.421Z,101278.69
2022-12-19T23:19:26.877Z,101290.72
2022-12-19T23:21:55.822Z,101281.63
2022-12-19T23:24:26.260Z,101293.22
2022-12-19T23:26:54.471Z,101289.75
2022-12-19T23:29:23.126Z,101287.78
2022-12-19T23:31:51.401Z,101293.78
2022-12-19T23:34:19.870Z,101290.56
2022-12-19T23:39:36.584Z,101290.91
2022-12-19T23:42:08.968Z,101288.56
2022-12-19T23:44:39.628Z,101284.91
2022-12-19T23:47:09.344Z,101288.69
2022-12-19T23:49:39.147Z,101283.69
2022-12-19T23:52:09.423Z,101286.44
2022-12-19T23:54:38.709Z,101277.19
2022-12-19T23:57:08.403Z,101268.50
2022-12-19T23:59:38.169Z,101263.84
